Time;durP1;ratioP1;P1;durP2;ratioP2;P2;SDS_P1;SDS_P2;PMS_P1;PMS_P2;Temp;Humidity;BMP_temperature;BMP_pressure;BME280_temperature;BME280_humidity;BME280_pressure;Samples;Min_cycle;Max_cycle;Signal;HPM_P1;HPM_P2
2022/12/18 00:00:43;;;;;;;15.97;10.50;;;;;;;;;;4989116;28;20221;-82
2022/12/18 00:03:11;;;;;;;12.23;10.30;;;;;;;;;;4982370;28;20230;-82
2022/12/18 00:05:52;;;;;;;12.77;10.30;;;;;;;;;;4998024;28;20220;-82
2022/12/18 00:08:20;;;;;;;14.33;10.53;;;;;;;;;;4981880;28;20216;-82
2022/12/18 00:10:48;;;;;;;15.10;9.97;;;;;;;;;;4993557;28;20218;-86
2022/12/18 00:13:14;;;;;;;13.20;9.63;;;;;;;;;;4986908;28;20286;-86
2022/12/18 00:15:44;;;;;;;14.97;10.00;;;;;;;;;;4989356;28;20237;-84
2022/12/18 00:18:09;;;;;;;10.53;9.27;;;;;;;;;;4989438;28;20210;-84
2022/12/18 00:20:38;;;;;;;14.83;10.53;;;;;;;;;;4976750;28;20364;-84
2022/12/18 00:23:04;;;;;;;11.73;8.93;;;;;;;;;;4969648;28;20241;-86
2022/12/18 00:25:29;;;;;;;14.63;9.03;;;;;;;;;;4985484;28;20249;-86
2022/12/18 00:27:55;;;;;;;10.40;8.60;;;;;;;;;;4969048;28;20237;-86
2022/12/18 00:30:23;;;;;;;13.17;9.20;;;;;;;;;;4985770;28;20230;-84
2022/12/18 00:32:48;;;;;;;11.87;9.03;;;;;;;;;;4969520;28;20226;-87
2022/12/18 00:35:23;;;;;;;11.83;9.07;;;;;;;;;;4984609;28;20233;-87
2022/12/18 00:37:54;;;;;;;14.37;9.90;;;;;;;;;;4970374;28;20220;-85
2022/12/18 00:40:24;;;;;;;11.10;9.07;;;;;;;;;;4969481;28;20289;-87
2022/12/18 00:42:55;;;;;;;12.03;9.53;;;;;;;;;;4969241;28;20230;-86
2022/12/18 00:45:23;;;;;;;13.00;9.33;;;;;;;;;;4986144;28;20218;-87
2022/12/18 00:47:54;;;;;;;11.73;9.50;;;;;;;;;;4969303;28;20214;-87
2022/12/18 00:50:22;;;;;;;12.57;8.97;;;;;;;;;;4985476;28;20240;-86
2022/12/18 00:52:48;;;;;;;13.30;9.43;;;;;;;;;;4969883;28;20718;-87
2022/12/18 00:55:13;;;;;;;11.87;8.77;;;;;;;;;;4968615;28;20233;-86
2022/12/18 00:57:41;;;;;;;9.53;8.57;;;;;;;;;;4967679;28;20229;-86
2022/12/18 01:00:12;;;;;;;11.00;7.93;;;;;;;;;;4950902;28;20227;-86
2022/12/18 01:02:38;;;;;;;12.37;8.97;;;;;;;;;;4965066;28;20227;-86
2022/12/18 01:05:07;;;;;;;13.97;9.13;;;;;;;;;;4966481;28;20230;-87
2022/12/18 01:07:36;;;;;;;10.40;8.90;;;;;;;;;;4982410;28;20316;-85
2022/12/18 01:10:02;;;;;;;10.80;8.83;;;;;;;;;;4948934;29;20222;-87
2022/12/18 01:12:30;;;;;;;11.73;9.17;;;;;;;;;;4964529;28;20237;-85
2022/12/18 01:14:56;;;;;;;11.93;8.40;;;;;;;;;;4964765;28;20743;-86
2022/12/18 01:17:21;;;;;;;18.07;9.60;;;;;;;;;;4981208;28;20226;-85
2022/12/18 01:19:48;;;;;;;10.50;8.27;;;;;;;;;;4965758;28;20238;-86
2022/12/18 01:22:13;;;;;;;12.30;8.47;;;;;;;;;;4980908;28;20604;-87
2022/12/18 01:24:41;;;;;;;14.23;8.47;;;;;;;;;;4965776;28;20230;-86
2022/12/18 01:27:06;;;;;;;10.40;8.87;;;;;;;;;;4964905;28;20230;-87
2022/12/18 01:29:32;;;;;;;11.23;8.27;;;;;;;;;;4965879;28;20223;-86
2022/12/18 01:32:00;;;;;;;12.10;8.03;;;;;;;;;;4964558;28;20298;-86
2022/12/18 01:34:29;;;;;;;12.07;8.53;;;;;;;;;;4927102;28;1129061;-86
2022/12/18 01:36:57;;;;;;;15.10;8.60;;;;;;;;;;4966438;28;20226;-87
2022/12/18 01:39:22;;;;;;;10.43;8.67;;;;;;;;;;4964970;28;20371;-87
2022/12/18 01:42:02;;;;;;;12.20;8.90;;;;;;;;;;4965289;28;20226;-86
2022/12/18 01:45:01;;;;;;;8.53;7.63;;;;;;;;;;4980664;28;20227;-87
2022/12/18 01:47:48;;;;;;;9.20;7.30;;;;;;;;;;4980928;28;20226;-86
2022/12/18 01:50:23;;;;;;;9.97;7.50;;;;;;;;;;4965099;28;20246;-86
2022/12/18 01:53:03;;;;;;;10.40;8.47;;;;;;;;;;4965340;28;20315;-87
2022/12/18 01:55:35;;;;;;;9.63;7.90;;;;;;;;;;4964666;28;20310;-87
2022/12/18 01:58:02;;;;;;;7.73;6.87;;;;;;;;;;4933215;28;20226;-83
2022/12/18 02:00:35;;;;;;;9.63;8.47;;;;;;;;;;4994034;28;20208;-84
2022/12/18 02:03:03;;;;;;;8.53;7.43;;;;;;;;;;4998062;28;20237;-87
2022/12/18 02:05:46;;;;;;;11.53;7.07;;;;;;;;;;4980580;28;20217;-84
2022/12/18 02:08:39;;;;;;;9.07;6.57;;;;;;;;;;4997160;28;20236;-84
2022/12/18 02:11:07;;;;;;;10.80;7.37;;;;;;;;;;5012443;28;20244;-83
2022/12/18 02:13:51;;;;;;;10.60;8.07;;;;;;;;;;4994162;28;20571;-87
2022/12/18 02:16:38;;;;;;;10.37;7.63;;;;;;;;;;5002473;28;20229;-86
2022/12/18 02:19:44;;;;;;;9.87;7.63;;;;;;;;;;5001585;28;20308;-86
2022/12/18 02:22:25;;;;;;;8.20;7.37;;;;;;;;;;4987892;28;20665;-86
2022/12/18 02:24:59;;;;;;;13.00;8.03;;;;;;;;;;5001875;28;20232;-87
2022/12/18 02:27:29;;;;;;;11.13;6.97;;;;;;;;;;5001475;28;20750;-87
2022/12/18 02:29:58;;;;;;;9.50;7.07;;;;;;;;;;4952895;28;20229;-85
2022/12/18 02:32:41;;;;;;;9.10;7.33;;;;;;;;;;4950490;28;20219;-87
2022/12/18 02:35:13;;;;;;;9.40;7.20;;;;;;;;;;4966398;28;20606;-87
2022/12/18 02:37:39;;;;;;;10.60;7.03;;;;;;;;;;4984629;28;20257;-83
2022/12/18 02:40:07;;;;;;;11.80;7.37;;;;;;;;;;4954098;28;20222;-85
2022/12/18 02:42:38;;;;;;;11.33;7.20;;;;;;;;;;4951460;28;20290;-86
2022/12/18 02:45:06;;;;;;;8.63;6.93;;;;;;;;;;4966079;28;20232;-86
2022/12/18 02:47:39;;;;;;;11.60;7.77;;;;;;;;;;4950930;28;20317;-87
2022/12/18 02:50:34;;;;;;;9.47;8.47;;;;;;;;;;4965609;28;20230;-84
2022/12/18 02:53:20;;;;;;;9.30;6.70;;;;;;;;;;4961821;28;20250;-86
2022/12/18 02:56:11;;;;;;;8.43;6.83;;;;;;;;;;4982529;28;20226;-84
2022/12/18 02:58:50;;;;;;;10.27;6.73;;;;;;;;;;4966286;28;20666;-85
2022/12/18 03:01:50;;;;;;;8.30;6.70;;;;;;;;;;4982035;28;20226;-86
2022/12/18 03:04:26;;;;;;;8.07;7.27;;;;;;;;;;4967982;28;20234;-87
2022/12/18 03:06:58;;;;;;;10.17;6.27;;;;;;;;;;4950625;28;20245;-86
2022/12/18 03:09:32;;;;;;;9.27;7.27;;;;;;;;;;4949743;28;20218;-87
2022/12/18 03:12:24;;;;;;;11.63;8.00;;;;;;;;;;4950295;28;20226;-86
2022/12/18 03:15:01;;;;;;;11.40;7.80;;;;;;;;;;4968954;28;20226;-87
2022/12/18 03:17:30;;;;;;;9.40;7.20;;;;;;;;;;4935513;28;20310;-85
2022/12/18 03:20:04;;;;;;;7.33;6.47;;;;;;;;;;4951105;28;20214;-86
2022/12/18 03:22:32;;;;;;;9.27;7.43;;;;;;;;;;4972995;28;20222;-85
2022/12/18 03:25:03;;;;;;;9.23;8.03;;;;;;;;;;4971599;28;20225;-86
2022/12/18 03:27:33;;;;;;;9.00;7.30;;;;;;;;;;4976876;28;20214;-84
2022/12/18 03:30:10;;;;;;;9.53;6.97;;;;;;;;;;4965711;28;20708;-84
2022/12/18 03:32:54;;;;;;;10.60;6.40;;;;;;;;;;4966049;28;20230;-85
2022/12/18 03:35:26;;;;;;;8.90;7.13;;;;;;;;;;4962698;28;20233;-87
2022/12/18 03:37:52;;;;;;;13.43;6.93;;;;;;;;;;4959830;28;20277;-83
2022/12/18 03:40:19;;;;;;;9.33;6.40;;;;;;;;;;4975934;28;20272;-87
2022/12/18 03:43:04;;;;;;;8.07;6.80;;;;;;;;;;4959195;28;20349;-85
2022/12/18 03:45:34;;;;;;;8.13;6.63;;;;;;;;;;4976446;28;20225;-85
2022/12/18 03:48:35;;;;;;;8.03;6.63;;;;;;;;;;4959894;28;20222;-86
2022/12/18 03:51:09;;;;;;;10.07;6.63;;;;;;;;;;4965985;28;20314;-86
2022/12/18 03:53:48;;;;;;;9.33;6.37;;;;;;;;;;4973116;28;20229;-86
2022/12/18 03:56:15;;;;;;;8.27;6.50;;;;;;;;;;4973831;28;20501;-84
2022/12/18 03:58:41;;;;;;;8.43;7.07;;;;;;;;;;4968777;28;20707;-85
2022/12/18 04:01:20;;;;;;;10.83;6.57;;;;;;;;;;4953451;28;20225;-87
2022/12/18 04:03:46;;;;;;;8.73;6.93;;;;;;;;;;4951541;28;20313;-86
2022/12/18 04:06:15;;;;;;;8.07;6.47;;;;;;;;;;4950474;28;20226;-87
2022/12/18 04:08:44;;;;;;;7.40;5.80;;;;;;;;;;4950200;28;20218;-87
2022/12/18 04:11:18;;;;;;;8.53;6.67;;;;;;;;;;4965906;28;20273;-88
2022/12/18 04:13:52;;;;;;;7.80;5.93;;;;;;;;;;4967740;28;20222;-87
2022/12/18 04:16:24;;;;;;;9.33;7.00;;;;;;;;;;4966808;28;20641;-87
2022/12/18 04:18:56;;;;;;;13.60;7.30;;;;;;;;;;4966945;28;20761;-85
2022/12/18 04:21:28;;;;;;;10.63;6.90;;;;;;;;;;4982144;28;20222;-87
2022/12/18 04:23:56;;;;;;;7.63;6.63;;;;;;;;;;4972739;28;20400;-82
2022/12/18 04:26:24;;;;;;;8.70;7.27;;;;;;;;;;4981128;28;20221;-83
2022/12/18 04:29:00;;;;;;;10.97;7.17;;;;;;;;;;4968556;28;20208;-82
2022/12/18 04:31:30;;;;;;;7.50;6.50;;;;;;;;;;4997618;28;20222;-82
2022/12/18 04:33:56;;;;;;;9.53;6.30;;;;;;;;;;4981303;28;20238;-83
2022/12/18 04:36:22;;;;;;;7.13;6.33;;;;;;;;;;4981332;28;21632;-84
2022/12/18 04:38:48;;;;;;;8.87;6.93;;;;;;;;;;4981736;28;20257;-82
2022/12/18 04:41:16;;;;;;;7.90;6.67;;;;;;;;;;4952653;28;20254;-86
2022/12/18 04:43:47;;;;;;;10.97;7.53;;;;;;;;;;4965899;28;20226;-87
2022/12/18 04:46:12;;;;;;;6.63;5.90;;;;;;;;;;4948677;28;20234;-87
2022/12/18 04:48:38;;;;;;;7.30;6.10;;;;;;;;;;4964580;28;20234;-87
2022/12/18 04:51:07;;;;;;;6.97;6.10;;;;;;;;;;4964444;28;20257;-86
2022/12/18 04:53:32;;;;;;;7.33;6.50;;;;;;;;;;4981298;28;20234;-86
2022/12/18 04:56:06;;;;;;;6.97;6.20;;;;;;;;;;4982985;28;20300;-86
2022/12/18 04:58:32;;;;;;;9.97;6.23;;;;;;;;;;4981632;28;20225;-87
2022/12/18 05:01:00;;;;;;;7.33;6.03;;;;;;;;;;4981165;28;20230;-87
2022/12/18 05:03:29;;;;;;;7.37;6.43;;;;;;;;;;4966472;28;20218;-87
2022/12/18 05:05:54;;;;;;;7.83;6.17;;;;;;;;;;4964688;28;20313;-85
2022/12/18 05:08:25;;;;;;;7.80;5.93;;;;;;;;;;4949078;28;20233;-86
2022/12/18 05:11:07;;;;;;;6.87;5.53;;;;;;;;;;4981042;28;20280;-87
2022/12/18 05:13:32;;;;;;;6.97;6.00;;;;;;;;;;4981921;28;20237;-87
2022/12/18 05:16:00;;;;;;;7.80;5.70;;;;;;;;;;4980049;28;20236;-86
2022/12/18 05:18:29;;;;;;;7.03;6.23;;;;;;;;;;4963457;28;20215;-87
2022/12/18 05:20:55;;;;;;;8.53;6.37;;;;;;;;;;4979660;28;20222;-85
2022/12/18 05:23:23;;;;;;;6.23;5.63;;;;;;;;;;4979176;28;20251;-86
2022/12/18 05:25:58;;;;;;;8.00;6.43;;;;;;;;;;4964071;28;20222;-86
2022/12/18 05:28:24;;;;;;;7.70;6.23;;;;;;;;;;4962983;28;20217;-87
2022/12/18 05:30:51;;;;;;;11.23;6.57;;;;;;;;;;4964395;28;20229;-86
2022/12/18 05:33:17;;;;;;;10.70;6.90;;;;;;;;;;4963912;28;20226;-85
2022/12/18 05:35:43;;;;;;;7.77;6.97;;;;;;;;;;4947211;28;20306;-86
2022/12/18 05:38:08;;;;;;;6.83;5.87;;;;;;;;;;4963299;28;20221;-86
2022/12/18 05:40:34;;;;;;;6.20;5.60;;;;;;;;;;4963664;28;20226;-87
2022/12/18 05:42:59;;;;;;;7.90;6.10;;;;;;;;;;4978587;28;20222;-85
2022/12/18 05:45:32;;;;;;;8.53;6.17;;;;;;;;;;4963788;28;20647;-86
2022/12/18 05:47:57;;;;;;;8.33;6.77;;;;;;;;;;4947185;28;20222;-85
2022/12/18 05:50:23;;;;;;;9.80;6.17;;;;;;;;;;4948289;28;20221;-87
2022/12/18 05:52:53;;;;;;;8.83;6.57;;;;;;;;;;4975582;28;20206;-82
2022/12/18 05:55:19;;;;;;;8.13;6.40;;;;;;;;;;4997159;28;20218;-82
2022/12/18 05:57:44;;;;;;;8.50;6.53;;;;;;;;;;4997162;28;20274;-82
2022/12/18 06:00:12;;;;;;;10.50;6.17;;;;;;;;;;5010301;22;20282;-77
2022/12/18 06:02:40;;;;;;;8.20;7.20;;;;;;;;;;4939921;28;20607;-76
2022/12/18 06:05:08;;;;;;;7.33;6.63;;;;;;;;;;4952038;28;20222;-76
2022/12/18 06:07:36;;;;;;;10.23;6.70;;;;;;;;;;4977896;28;20309;-76
2022/12/18 06:10:06;;;;;;;9.23;6.47;;;;;;;;;;4956267;28;20229;-77
2022/12/18 06:12:33;;;;;;;8.77;6.90;;;;;;;;;;4978293;28;20222;-76
2022/12/18 06:14:59;;;;;;;7.20;6.50;;;;;;;;;;4956629;28;20234;-77
2022/12/18 06:17:29;;;;;;;8.03;6.53;;;;;;;;;;4963585;28;20249;-76
2022/12/18 06:19:57;;;;;;;9.67;7.17;;;;;;;;;;4954446;28;20223;-76
2022/12/18 06:22:22;;;;;;;11.17;6.93;;;;;;;;;;4959205;28;20747;-76
2022/12/18 06:24:52;;;;;;;8.40;6.77;;;;;;;;;;4955368;28;20217;-77
2022/12/18 06:27:21;;;;;;;9.23;6.73;;;;;;;;;;4950784;28;20221;-76
2022/12/18 06:29:49;;;;;;;7.27;5.93;;;;;;;;;;4953436;28;20226;-76
2022/12/18 06:32:14;;;;;;;8.77;6.77;;;;;;;;;;4954637;28;20243;-76
2022/12/18 06:34:42;;;;;;;7.23;5.63;;;;;;;;;;4970698;28;20583;-76
2022/12/18 06:37:08;;;;;;;10.20;6.83;;;;;;;;;;4969848;28;20798;-77
2022/12/18 06:39:36;;;;;;;7.27;6.20;;;;;;;;;;4969415;28;20218;-76
2022/12/18 06:42:04;;;;;;;6.93;5.97;;;;;;;;;;4968886;28;20233;-76
2022/12/18 06:44:35;;;;;;;8.27;6.37;;;;;;;;;;4982125;28;20225;-76
2022/12/18 06:47:05;;;;;;;7.47;5.87;;;;;;;;;;4982519;28;20221;-77
2022/12/18 06:49:33;;;;;;;7.80;6.37;;;;;;;;;;4954680;28;20226;-76
2022/12/18 06:51:58;;;;;;;7.10;6.00;;;;;;;;;;4954025;28;20667;-76
2022/12/18 06:54:26;;;;;;;7.70;6.27;;;;;;;;;;4955071;28;20263;-76
2022/12/18 06:56:54;;;;;;;8.17;6.37;;;;;;;;;;4972160;28;20704;-76
2022/12/18 06:59:22;;;;;;;9.30;6.93;;;;;;;;;;4977223;28;20339;-76
2022/12/18 07:01:50;;;;;;;9.63;7.07;;;;;;;;;;4958139;28;20607;-76
2022/12/18 07:04:19;;;;;;;8.67;6.80;;;;;;;;;;4961602;28;20233;-76
2022/12/18 07:06:47;;;;;;;8.63;6.70;;;;;;;;;;4983237;28;20225;-76
2022/12/18 07:09:18;;;;;;;10.63;7.50;;;;;;;;;;4967091;28;20225;-77
2022/12/18 07:11:43;;;;;;;12.10;7.60;;;;;;;;;;4982451;28;20236;-76
2022/12/18 07:14:09;;;;;;;10.30;7.40;;;;;;;;;;4973360;28;20242;-76
2022/12/18 07:16:37;;;;;;;11.40;8.33;;;;;;;;;;4969862;28;20224;-76
2022/12/18 07:19:07;;;;;;;9.03;7.77;;;;;;;;;;4967714;28;20229;-76
2022/12/18 07:21:35;;;;;;;12.03;7.60;;;;;;;;;;4982679;28;20692;-76
2022/12/18 07:24:03;;;;;;;12.50;7.63;;;;;;;;;;4964532;28;20217;-76
2022/12/18 07:26:31;;;;;;;7.83;7.03;;;;;;;;;;4969575;28;20214;-77
2022/12/18 07:29:01;;;;;;;8.30;7.40;;;;;;;;;;4986292;28;20217;-76
2022/12/18 07:31:27;;;;;;;7.93;6.67;;;;;;;;;;4956567;28;20487;-77
2022/12/18 07:33:57;;;;;;;11.77;7.70;;;;;;;;;;4956968;28;20225;-76
2022/12/18 07:36:25;;;;;;;9.57;7.73;;;;;;;;;;4967870;28;20745;-76
2022/12/18 07:38:52;;;;;;;8.07;7.20;;;;;;;;;;4957720;28;20217;-77
2022/12/18 07:41:18;;;;;;;8.43;7.50;;;;;;;;;;4955395;28;20229;-76
2022/12/18 07:43:46;;;;;;;9.77;7.27;;;;;;;;;;4956486;28;20236;-77
2022/12/18 07:46:15;;;;;;;8.60;7.40;;;;;;;;;;4966866;28;20226;-76
2022/12/18 07:48:43;;;;;;;8.53;7.23;;;;;;;;;;4983525;28;20251;-76
2022/12/18 07:51:12;;;;;;;14.73;7.73;;;;;;;;;;4947565;28;20241;-76
2022/12/18 07:53:37;;;;;;;10.70;7.97;;;;;;;;;;4956790;28;20222;-76
2022/12/18 07:56:05;;;;;;;7.27;6.10;;;;;;;;;;4972653;28;20221;-78
2022/12/18 07:58:33;;;;;;;10.67;7.90;;;;;;;;;;4968630;28;20241;-76
2022/12/18 08:01:12;;;;;;;10.97;8.13;;;;;;;;;;4943295;28;20356;-76
2022/12/18 08:03:38;;;;;;;8.30;7.17;;;;;;;;;;4963947;28;20300;-78
2022/12/18 08:06:06;;;;;;;9.10;6.47;;;;;;;;;;4944876;28;20651;-75
2022/12/18 08:08:32;;;;;;;8.13;7.00;;;;;;;;;;4972271;28;20304;-76
2022/12/18 08:11:00;;;;;;;8.87;7.70;;;;;;;;;;4969572;28;20304;-77
2022/12/18 08:13:26;;;;;;;7.93;7.13;;;;;;;;;;4972115;28;20306;-77
2022/12/18 08:16:06;;;;;;;10.87;7.47;;;;;;;;;;4995608;22;20217;-84
2022/12/18 08:18:36;;;;;;;8.20;7.00;;;;;;;;;;4991180;28;20229;-85
2022/12/18 08:21:16;;;;;;;9.10;7.20;;;;;;;;;;5026990;28;20220;-87
2022/12/18 08:23:44;;;;;;;8.20;7.33;;;;;;;;;;5004886;28;20221;-88
2022/12/18 08:26:12;;;;;;;9.80;8.40;;;;;;;;;;4992605;28;20277;-85
2022/12/18 08:28:37;;;;;;;11.83;8.30;;;;;;;;;;4989288;28;20221;-85
2022/12/18 08:31:03;;;;;;;9.53;7.00;;;;;;;;;;4988421;28;20226;-83
2022/12/18 08:33:31;;;;;;;8.90;7.20;;;;;;;;;;4990294;28;20252;-84
2022/12/18 08:36:06;;;;;;;10.17;7.63;;;;;;;;;;4986893;28;20281;-83
2022/12/18 08:38:32;;;;;;;12.67;8.03;;;;;;;;;;4982422;28;20286;-84
2022/12/18 08:41:04;;;;;;;9.00;8.10;;;;;;;;;;4977389;28;20213;-85
2022/12/18 08:46:17;;;;;;;8.47;7.40;;;;;;;;;;5006362;28;20236;-84
2022/12/18 08:48:45;;;;;;;10.73;8.30;;;;;;;;;;5004474;28;20831;-82
2022/12/18 08:51:13;;;;;;;9.50;7.50;;;;;;;;;;5008904;28;20220;-84
2022/12/18 08:53:44;;;;;;;10.00;7.97;;;;;;;;;;4995086;28;20225;-83
2022/12/18 08:56:09;;;;;;;11.77;8.00;;;;;;;;;;4990035;28;20255;-83
2022/12/18 08:58:37;;;;;;;10.47;8.60;;;;;;;;;;5014695;28;20221;-84
2022/12/18 09:01:09;;;;;;;9.73;8.23;;;;;;;;;;5006519;28;20233;-83
2022/12/18 09:03:37;;;;;;;12.53;8.13;;;;;;;;;;4967796;28;20220;-83
2022/12/18 09:06:08;;;;;;;9.47;7.53;;;;;;;;;;4998038;28;20267;-83
2022/12/18 09:08:42;;;;;;;9.10;7.80;;;;;;;;;;4982895;28;20227;-82
2022/12/18 09:11:30;;;;;;;9.80;7.17;;;;;;;;;;5013650;28;20292;-82
2022/12/18 09:14:02;;;;;;;10.17;7.47;;;;;;;;;;5002040;28;20240;-83
2022/12/18 09:16:28;;;;;;;8.57;7.30;;;;;;;;;;4999929;28;20240;-82
2022/12/18 09:18:59;;;;;;;9.20;7.40;;;;;;;;;;4991840;28;20229;-82
2022/12/18 09:21:25;;;;;;;9.50;7.73;;;;;;;;;;5004868;28;20697;-83
2022/12/18 09:23:51;;;;;;;9.13;7.50;;;;;;;;;;4992597;28;20597;-82
2022/12/18 09:26:22;;;;;;;9.20;7.77;;;;;;;;;;4985659;28;20375;-83
2022/12/18 09:28:50;;;;;;;9.37;7.70;;;;;;;;;;4988840;28;20225;-84
2022/12/18 09:31:20;;;;;;;11.83;8.07;;;;;;;;;;4984549;28;20220;-85
2022/12/18 09:33:50;;;;;;;10.93;7.77;;;;;;;;;;4986197;28;20220;-84
2022/12/18 09:36:18;;;;;;;8.13;7.33;;;;;;;;;;4979981;28;20224;-82
2022/12/18 09:38:52;;;;;;;9.03;7.40;;;;;;;;;;4990144;28;20221;-82
2022/12/18 09:41:37;;;;;;;12.52;11.23;;;;;;;;;;4974926;28;20448;-83
2022/12/18 09:44:36;;;;;;;13.60;9.00;;;;;;;;;;5023753;28;20217;-83
2022/12/18 09:47:18;;;;;;;8.37;7.50;;;;;;;;;;4996464;28;20689;-83
2022/12/18 09:49:51;;;;;;;7.77;6.77;;;;;;;;;;4997890;28;20218;-83
2022/12/18 09:52:23;;;;;;;7.37;6.67;;;;;;;;;;4990601;28;20286;-83
2022/12/18 09:55:26;;;;;;;7.83;7.00;;;;;;;;;;5022389;28;20313;-83
2022/12/18 09:58:04;;;;;;;7.63;6.77;;;;;;;;;;5019242;28;20724;-84
2022/12/18 10:00:32;;;;;;;10.67;7.40;;;;;;;;;;5010005;28;20225;-84
2022/12/18 10:03:11;;;;;;;8.93;7.40;;;;;;;;;;4990394;28;20235;-84
2022/12/18 10:05:42;;;;;;;7.83;7.03;;;;;;;;;;4982674;28;20714;-84
2022/12/18 10:08:45;;;;;;;9.63;7.10;;;;;;;;;;5023341;28;20234;-83
2022/12/18 10:11:21;;;;;;;10.43;6.73;;;;;;;;;;5019022;28;20272;-84
2022/12/18 10:13:57;;;;;;;8.40;7.07;;;;;;;;;;4980035;28;20251;-84
2022/12/18 10:16:30;;;;;;;7.53;6.53;;;;;;;;;;4993048;28;21551;-83
2022/12/18 10:19:28;;;;;;;8.50;7.43;;;;;;;;;;4999965;28;20236;-83
2022/12/18 10:22:15;;;;;;;8.23;6.90;;;;;;;;;;4992347;28;20235;-84
2022/12/18 10:24:59;;;;;;;8.43;7.03;;;;;;;;;;5014876;28;20228;-83
2022/12/18 10:27:28;;;;;;;7.83;7.03;;;;;;;;;;5007744;28;20225;-83
2022/12/18 10:29:54;;;;;;;7.97;7.07;;;;;;;;;;4998014;28;20218;-84
2022/12/18 10:32:28;;;;;;;8.83;7.70;;;;;;;;;;4975133;28;20236;-84
2022/12/18 10:34:57;;;;;;;7.87;7.03;;;;;;;;;;4977208;28;20246;-84
2022/12/18 10:37:26;;;;;;;8.17;7.27;;;;;;;;;;4998258;28;20440;-83
2022/12/18 10:40:12;;;;;;;9.10;7.33;;;;;;;;;;4975893;28;20217;-84
2022/12/18 10:42:40;;;;;;;8.83;6.13;;;;;;;;;;5004180;28;20259;-84
2022/12/18 10:45:18;;;;;;;7.70;6.87;;;;;;;;;;4999173;28;20252;-83
2022/12/18 10:47:49;;;;;;;7.87;6.50;;;;;;;;;;4996184;28;20230;-83
2022/12/18 10:50:32;;;;;;;7.73;6.57;;;;;;;;;;4983109;28;20237;-83
2022/12/18 10:52:59;;;;;;;8.37;6.50;;;;;;;;;;4996466;28;20289;-83
2022/12/18 10:55:37;;;;;;;8.67;6.43;;;;;;;;;;4995041;28;20304;-82
2022/12/18 10:58:31;;;;;;;7.30;6.37;;;;;;;;;;5002692;28;20236;-83
2022/12/18 11:01:05;;;;;;;6.80;6.10;;;;;;;;;;4998937;28;20225;-84
2022/12/18 11:03:58;;;;;;;7.93;6.80;;;;;;;;;;5018863;28;20220;-84
2022/12/18 11:06:26;;;;;;;9.13;5.63;;;;;;;;;;4985509;28;20213;-84
2022/12/18 11:09:05;;;;;;;7.67;6.83;;;;;;;;;;4979548;28;20284;-83
2022/12/18 11:11:31;;;;;;;7.97;6.27;;;;;;;;;;4979000;28;20232;-84
2022/12/18 11:14:07;;;;;;;7.90;6.07;;;;;;;;;;4993552;28;20264;-84
2022/12/18 11:16:46;;;;;;;7.10;5.97;;;;;;;;;;4982916;28;20231;-83
2022/12/18 11:19:35;;;;;;;8.33;6.00;;;;;;;;;;4956928;28;20232;-83
2022/12/18 11:22:20;;;;;;;6.60;5.93;;;;;;;;;;4997777;28;20264;-83
2022/12/18 11:24:55;;;;;;;6.83;6.13;;;;;;;;;;4989240;28;20249;-82
2022/12/18 11:27:21;;;;;;;6.77;5.60;;;;;;;;;;5007085;28;20228;-81
2022/12/18 11:29:46;;;;;;;7.90;6.10;;;;;;;;;;4983211;28;20279;-82
2022/12/18 11:32:32;;;;;;;6.63;5.97;;;;;;;;;;4965624;28;20244;-83
2022/12/18 11:35:20;;;;;;;7.13;5.97;;;;;;;;;;5010863;28;20284;-83
2022/12/18 11:37:53;;;;;;;6.73;5.63;;;;;;;;;;4997726;28;20225;-82
2022/12/18 11:40:32;;;;;;;8.17;6.30;;;;;;;;;;5007362;28;20224;-82
2022/12/18 11:43:14;;;;;;;7.07;5.63;;;;;;;;;;4980521;28;20833;-82
2022/12/18 11:45:50;;;;;;;7.33;6.13;;;;;;;;;;4983608;28;20236;-83
2022/12/18 11:48:22;;;;;;;10.43;6.60;;;;;;;;;;4988356;28;20225;-81
2022/12/18 11:50:58;;;;;;;7.63;5.93;;;;;;;;;;4996414;28;20233;-82
2022/12/18 11:53:27;;;;;;;6.93;6.23;;;;;;;;;;4965847;28;20581;-81
2022/12/18 11:56:23;;;;;;;6.53;5.90;;;;;;;;;;4958903;28;20220;-82
2022/12/18 11:58:52;;;;;;;8.27;6.30;;;;;;;;;;5014791;28;20240;-82
2022/12/18 12:01:24;;;;;;;7.87;6.33;;;;;;;;;;4969650;28;20856;-82
2022/12/18 12:04:08;;;;;;;6.93;5.60;;;;;;;;;;5014766;28;20225;-82
2022/12/18 12:06:54;;;;;;;7.03;6.30;;;;;;;;;;5012355;28;20240;-83
2022/12/18 12:09:45;;;;;;;9.53;6.77;;;;;;;;;;5014171;28;20224;-83
2022/12/18 12:12:51;;;;;;;19.30;14.40;;;;;;;;;;5017314;28;20224;-83
2022/12/18 12:15:28;;;;;;;29.53;26.70;;;;;;;;;;4997622;28;20228;-84
2022/12/18 12:18:03;;;;;;;12.03;10.83;;;;;;;;;;4997299;28;20740;-82
2022/12/18 12:20:49;;;;;;;8.80;6.87;;;;;;;;;;5020655;28;20593;-83
2022/12/18 12:23:59;;;;;;;8.77;7.23;;;;;;;;;;4996483;28;20221;-83
2022/12/18 12:26:30;;;;;;;6.93;6.20;;;;;;;;;;5004036;28;20221;-84
2022/12/18 12:29:09;;;;;;;7.30;6.70;;;;;;;;;;5019940;28;20686;-82
2022/12/18 12:31:45;;;;;;;8.10;6.63;;;;;;;;;;4991148;28;20224;-84
2022/12/18 12:34:17;;;;;;;6.67;5.97;;;;;;;;;;5019386;28;20381;-83
2022/12/18 12:37:12;;;;;;;7.23;6.53;;;;;;;;;;4996233;28;20233;-86
2022/12/18 12:39:38;;;;;;;6.33;5.67;;;;;;;;;;4991389;28;20262;-85
2022/12/18 12:44:57;;;;;;;6.10;5.50;;;;;;;;;;5014476;28;20247;-84
2022/12/18 12:47:25;;;;;;;6.70;6.03;;;;;;;;;;4985566;28;20313;-85
2022/12/18 12:49:54;;;;;;;6.17;5.57;;;;;;;;;;5002825;28;20221;-82
2022/12/18 12:52:30;;;;;;;7.07;5.83;;;;;;;;;;4993786;28;20225;-82
2022/12/18 12:54:56;;;;;;;6.93;5.70;;;;;;;;;;5005826;28;20220;-83
2022/12/18 12:57:43;;;;;;;6.20;5.60;;;;;;;;;;4979799;28;20243;-83
2022/12/18 13:00:19;;;;;;;6.27;5.67;;;;;;;;;;4987516;28;20276;-82
2022/12/18 13:03:12;;;;;;;7.63;6.17;;;;;;;;;;4987023;28;20252;-83
2022/12/18 13:05:55;;;;;;;9.13;5.63;;;;;;;;;;5013641;28;20251;-82
2022/12/18 13:08:30;;;;;;;6.87;6.17;;;;;;;;;;4983114;28;20225;-83
2022/12/18 13:13:55;;;;;;;6.40;5.80;;;;;;;;;;5012023;28;20494;-84
2022/12/18 13:16:29;;;;;;;8.37;5.33;;;;;;;;;;4987148;28;20227;-83
2022/12/18 13:18:59;;;;;;;7.07;6.03;;;;;;;;;;5002995;28;20277;-83
2022/12/18 13:21:29;;;;;;;6.87;6.00;;;;;;;;;;4978128;28;20348;-83
2022/12/18 13:23:57;;;;;;;6.97;5.37;;;;;;;;;;4994229;28;20232;-84
2022/12/18 13:26:25;;;;;;;6.67;5.53;;;;;;;;;;4982086;28;20232;-84
2022/12/18 13:28:54;;;;;;;6.07;5.47;;;;;;;;;;5013986;28;20921;-83
2022/12/18 13:31:41;;;;;;;12.47;5.87;;;;;;;;;;4997334;28;20335;-83
2022/12/18 13:34:19;;;;;;;9.60;6.03;;;;;;;;;;5014795;28;20295;-84
2022/12/18 13:36:48;;;;;;;6.47;5.30;;;;;;;;;;5012315;28;20233;-82
2022/12/18 13:39:18;;;;;;;7.50;5.93;;;;;;;;;;4988470;28;20216;-84
2022/12/18 13:41:46;;;;;;;6.47;5.70;;;;;;;;;;4997294;28;20244;-83
2022/12/18 13:44:39;;;;;;;6.27;5.60;;;;;;;;;;4981117;28;20209;-84
2022/12/18 13:47:05;;;;;;;11.27;6.63;;;;;;;;;;4970436;28;20233;-82
2022/12/18 13:49:41;;;;;;;6.40;5.80;;;;;;;;;;5013600;28;20288;-82
2022/12/18 13:52:19;;;;;;;7.50;6.13;;;;;;;;;;5009101;28;20237;-83
2022/12/18 13:54:53;;;;;;;7.03;5.80;;;;;;;;;;5016516;28;20235;-81
2022/12/18 13:57:51;;;;;;;6.53;5.50;;;;;;;;;;5005641;28;20230;-83
2022/12/18 14:00:22;;;;;;;6.07;5.47;;;;;;;;;;5001716;28;20210;-82
2022/12/18 14:03:17;;;;;;;8.77;6.73;;;;;;;;;;5018186;28;20232;-82
2022/12/18 14:05:43;;;;;;;6.67;5.57;;;;;;;;;;5007663;28;20224;-81
2022/12/18 14:08:13;;;;;;;8.13;6.13;;;;;;;;;;4985519;28;20449;-83
2022/12/18 14:10:42;;;;;;;7.80;6.30;;;;;;;;;;5022678;28;20836;-83
2022/12/18 14:13:09;;;;;;;7.10;5.83;;;;;;;;;;5018531;28;20710;-85
2022/12/18 14:15:45;;;;;;;9.20;6.93;;;;;;;;;;5024293;28;20237;-84
2022/12/18 14:18:42;;;;;;;7.00;6.27;;;;;;;;;;4979666;28;20755;-86
2022/12/18 14:21:16;;;;;;;7.07;6.10;;;;;;;;;;4998575;28;20589;-86
2022/12/18 14:23:42;;;;;;;8.33;6.77;;;;;;;;;;4976071;28;20721;-86
2022/12/18 14:26:33;;;;;;;7.57;6.57;;;;;;;;;;4974869;28;20221;-86
2022/12/18 14:29:27;;;;;;;7.07;5.83;;;;;;;;;;4994419;28;20229;-86
2022/12/18 14:32:17;;;;;;;8.77;6.67;;;;;;;;;;4984938;28;20226;-84
2022/12/18 14:34:48;;;;;;;12.07;6.70;;;;;;;;;;4983545;28;20228;-86
2022/12/18 14:37:15;;;;;;;8.33;6.80;;;;;;;;;;4997255;28;20216;-85
2022/12/18 14:39:52;;;;;;;10.63;7.67;;;;;;;;;;4996476;28;20224;-85
2022/12/18 14:42:20;;;;;;;10.20;8.00;;;;;;;;;;4994658;28;20299;-83
2022/12/18 14:44:50;;;;;;;8.57;7.67;;;;;;;;;;4991814;28;20220;-84
2022/12/18 14:47:16;;;;;;;9.53;8.17;;;;;;;;;;4997009;28;20231;-84
2022/12/18 14:49:43;;;;;;;10.17;7.80;;;;;;;;;;4987011;28;20226;-85
2022/12/18 14:52:38;;;;;;;11.03;9.20;;;;;;;;;;4988869;28;20343;-85
2022/12/18 14:55:04;;;;;;;10.77;7.40;;;;;;;;;;4982955;28;20237;-86
2022/12/18 14:57:37;;;;;;;8.83;7.50;;;;;;;;;;4992794;28;20308;-86
2022/12/18 15:00:07;;;;;;;12.60;7.53;;;;;;;;;;5001543;28;20226;-84
2022/12/18 15:02:34;;;;;;;9.37;7.63;;;;;;;;;;5004570;28;20252;-83
2022/12/18 15:05:17;;;;;;;10.57;7.47;;;;;;;;;;4994913;28;20283;-87
2022/12/18 15:07:49;;;;;;;9.53;8.33;;;;;;;;;;5006930;28;20449;-83
2022/12/18 15:10:19;;;;;;;10.87;8.50;;;;;;;;;;4998082;28;20212;-83
2022/12/18 15:12:49;;;;;;;9.33;7.50;;;;;;;;;;5014438;28;20222;-83
2022/12/18 15:15:39;;;;;;;12.87;8.73;;;;;;;;;;4995222;28;20236;-82
2022/12/18 15:18:06;;;;;;;11.77;8.00;;;;;;;;;;5013042;28;20213;-84
2022/12/18 15:20:33;;;;;;;11.23;8.23;;;;;;;;;;5017910;28;20235;-83